Time;durP1;ratioP1;P1;durP2;ratioP2;P2;SDS_P1;SDS_P2;PMS_P1;PMS_P2;Temp;Humidity;BMP_temperature;BMP_pressure;BME280_temperature;BME280_humidity;BME280_pressure;Samples;Min_cycle;Max_cycle;Signal;HPM_P1;HPM_P2
2022/12/15 00:40:49;;;;;;;47.30;22.10;;;;;;;-2.58;76.62;98872.07;126325;1293;102837;-79
2022/12/15 00:43:52;;;;;;;46.60;22.20;;;;;;;-2.50;76.52;98870.64;126497;1293;99350;-80
2022/12/15 00:46:55;;;;;;;49.40;22.30;;;;;;;-2.45;76.44;98867.89;126573;1293;100483;-79
2022/12/15 01:20:17;;;;;;;41.60;20.60;;;;;;;-2.51;76.40;98873.01;126432;1277;99418;-79
2022/12/15 01:23:19;;;;;;;39.70;20.80;;;;;;;-2.52;76.30;98877.40;125515;1290;1378637;-78
2022/12/15 01:26:21;;;;;;;;;;;;;;;-2.51;76.37;98877.71;126432;1291;99373;-78
2022/12/15 01:29:24;;;;;;;53.70;24.80;;;;;;;-2.52;76.34;98878.27;126427;1284;100532;-78
2022/12/15 01:32:28;;;;;;;58.30;26.20;;;;;;;-2.52;76.35;98876.55;126523;1287;99338;-77
2022/12/15 01:35:30;;;;;;;50.90;23.80;;;;;;;-2.52;76.48;98875.16;126532;1285;99326;-78
2022/12/15 01:38:33;;;;;;;51.70;23.00;;;;;;;-2.53;76.56;98874.88;126672;1292;100158;-79
2022/12/15 01:41:36;;;;;;;44.00;22.20;;;;;;;-2.52;76.60;98871.86;126559;1277;99337;-79
2022/12/15 01:44:39;;;;;;;44.70;22.50;;;;;;;-2.50;76.59;98872.26;126685;1280;100394;-79
2022/12/15 01:47:41;;;;;;;48.40;22.90;;;;;;;-2.45;76.18;98867.53;126453;1294;112597;-81
2022/12/15 01:50:46;;;;;;;44.30;20.90;;;;;;;-2.36;76.58;98862.92;126465;1294;99321;-79
2022/12/15 01:53:57;;;;;;;45.00;22.30;;;;;;;-2.28;76.59;98866.54;126535;1290;112616;-81
2022/12/15 01:57:04;;;;;;;46.20;23.70;;;;;;;-2.20;76.70;98872.30;126584;1285;112583;-82
2022/12/15 02:00:09;;;;;;;49.80;22.50;;;;;;;-2.17;76.32;98873.08;126579;1287;112521;-78
2022/12/15 02:03:12;;;;;;;44.90;22.40;;;;;;;-2.15;76.43;98879.23;126428;1285;112454;-81
2022/12/15 02:06:15;;;;;;;47.20;23.00;;;;;;;-2.13;76.26;98881.20;126511;1285;112602;-79
2022/12/15 02:09:20;;;;;;;47.60;23.80;;;;;;;-2.11;76.64;98884.36;126535;1292;112517;-79
2022/12/15 02:12:33;;;;;;;46.10;23.50;;;;;;;-2.11;76.30;98885.07;126520;1283;112604;-80
2022/12/15 02:15:41;;;;;;;50.10;24.70;;;;;;;-2.12;76.37;98890.66;126297;1292;112548;-80
2022/12/15 02:18:55;;;;;;;49.70;25.20;;;;;;;-2.12;76.60;98892.42;126346;1283;112531;-80
2022/12/15 02:22:14;;;;;;;105.40;34.90;;;;;;;-2.13;76.64;98892.70;126321;1284;112468;-78
2022/12/15 02:25:37;;;;;;;69.90;28.50;;;;;;;-2.15;76.60;98894.24;126429;1283;112570;-81
2022/12/15 02:28:51;;;;;;;73.90;29.50;;;;;;;-2.17;76.47;98892.24;126324;1279;112545;-78
2022/12/15 02:31:58;;;;;;;56.20;26.90;;;;;;;-2.21;76.37;98902.64;126535;1284;112559;-78
2022/12/15 02:35:05;;;;;;;66.00;30.50;;;;;;;-2.34;76.29;98904.38;126499;1294;112604;-79
2022/12/15 02:38:08;;;;;;;63.00;30.10;;;;;;;-2.50;76.34;98912.94;126444;1285;112442;-77
2022/12/15 02:41:32;;;;;;;54.90;27.60;;;;;;;-2.61;76.32;98917.16;126488;1283;112534;-80
2022/12/15 02:44:42;;;;;;;49.80;24.70;;;;;;;-2.63;76.64;98920.06;126766;1291;112499;-83
2022/12/15 02:47:56;;;;;;;52.40;26.40;;;;;;;-2.56;76.96;98917.88;126538;1285;113042;-84
2022/12/15 02:51:12;;;;;;;51.70;24.10;;;;;;;-2.46;76.86;98917.92;126852;1297;112415;-81
2022/12/15 02:54:30;;;;;;;47.60;23.60;;;;;;;-2.34;76.88;98916.27;126511;1300;112560;-82
2022/12/15 02:57:43;;;;;;;44.40;20.40;;;;;;;-2.21;77.00;98919.02;126653;1291;112481;-81
2022/12/15 03:00:51;;;;;;;48.30;22.60;;;;;;;-2.09;76.86;98923.78;126600;1285;112635;-80
2022/12/15 03:03:56;;;;;;;47.40;23.70;;;;;;;-2.04;76.50;98927.96;126594;1294;112660;-82
2022/12/15 03:07:02;;;;;;;48.10;23.20;;;;;;;-2.01;76.25;98929.45;126458;1284;113656;-80
2022/12/15 03:10:08;;;;;;;45.10;22.90;;;;;;;-1.99;76.46;98927.39;126543;1285;112557;-78
2022/12/15 03:13:11;;;;;;;45.80;22.60;;;;;;;-1.97;76.49;98923.27;126338;1294;112418;-83
2022/12/15 03:16:14;;;;;;;49.70;24.40;;;;;;;-1.96;76.41;98927.05;126576;1293;112636;-77
2022/12/15 03:19:17;;;;;;;45.90;23.20;;;;;;;-1.96;76.50;98929.86;126516;1294;99506;-78
2022/12/15 03:22:19;;;;;;;46.30;22.30;;;;;;;-1.98;76.54;98932.73;126517;1287;99720;-80
2022/12/15 03:25:22;;;;;;;42.90;22.70;;;;;;;-1.99;76.58;98933.52;126471;1277;99356;-81
2022/12/15 03:28:25;;;;;;;43.10;21.60;;;;;;;-2.00;76.75;98932.55;126598;1290;99813;-79
2022/12/15 03:31:27;;;;;;;48.70;23.90;;;;;;;-2.02;76.41;98937.39;126523;1290;99986;-84
2022/12/15 03:34:30;;;;;;;49.70;24.50;;;;;;;-2.03;76.49;98943.56;127085;1294;99768;-80
2022/12/15 03:37:32;;;;;;;50.80;25.10;;;;;;;-2.05;76.58;98940.92;126652;1284;100929;-83
2022/12/15 03:40:35;;;;;;;53.50;26.60;;;;;;;-2.07;76.60;98940.48;126590;1293;107614;-81
2022/12/15 03:43:38;;;;;;;48.30;24.80;;;;;;;-2.09;76.77;98932.65;126605;1283;99364;-79
2022/12/15 03:46:40;;;;;;;59.60;29.80;;;;;;;-2.11;76.59;98930.20;126504;1286;100509;-80
2022/12/15 03:49:43;;;;;;;60.80;32.20;;;;;;;-2.17;76.43;98931.80;126659;1285;99857;-80
2022/12/15 03:52:48;;;;;;;55.30;27.60;;;;;;;-2.22;76.62;98943.81;126264;1293;100541;-77
2022/12/15 03:55:51;;;;;;;62.60;29.60;;;;;;;-2.25;76.30;98953.42;126369;1283;107586;-77
2022/12/15 03:58:53;;;;;;;56.60;27.90;;;;;;;-2.28;76.74;98950.48;126376;1281;99465;-79
2022/12/15 04:01:56;;;;;;;50.00;25.00;;;;;;;-2.27;76.57;98950.25;126677;1284;99456;-78
2022/12/15 04:04:58;;;;;;;50.30;23.20;;;;;;;-2.22;76.42;98950.25;126816;1290;99768;-79
2022/12/15 04:08:02;;;;;;;48.50;22.40;;;;;;;-2.14;76.45;98952.84;126539;1287;99387;-79
2022/12/15 04:11:05;;;;;;;52.30;25.00;;;;;;;-2.06;76.32;98953.00;126665;1284;100510;-78
2022/12/15 04:14:09;;;;;;;57.00;27.60;;;;;;;-2.01;76.41;98951.08;126725;1287;100493;-78
2022/12/15 04:17:12;;;;;;;83.50;36.50;;;;;;;-1.98;76.44;98956.43;126777;1277;99314;-78
2022/12/15 04:20:14;;;;;;;127.20;51.10;;;;;;;-1.97;76.29;98953.40;126720;1289;99903;-78
2022/12/15 04:23:17;;;;;;;79.10;35.60;;;;;;;-1.97;76.35;98957.24;126569;1285;99353;-82
2022/12/15 05:33:32;;;;;;;64.50;29.10;;;;;;;-2.95;76.74;99074.26;126818;1286;107076;-79
2022/12/15 05:36:35;;;;;;;62.80;29.80;;;;;;;-2.85;77.06;99078.73;126680;1290;99833;-79
2022/12/15 05:39:37;;;;;;;70.00;32.20;;;;;;;-2.83;76.52;99080.81;126560;1293;99357;-82
2022/12/15 05:42:40;;;;;;;70.50;32.10;;;;;;;-2.92;76.79;99086.42;126697;1283;100582;-80
2022/12/15 05:45:43;;;;;;;69.10;33.10;;;;;;;-3.04;76.80;99093.78;126651;1290;99750;-78
2022/12/15 05:48:45;;;;;;;77.00;34.60;;;;;;;-3.18;76.80;99100.58;126770;1284;100497;-80
2022/12/15 05:51:48;;;;;;;73.70;33.90;;;;;;;-3.28;76.95;99108.86;127309;1291;99388;-78
2022/12/15 05:54:51;;;;;;;70.10;31.60;;;;;;;-3.34;77.18;99111.63;126673;1285;99334;-80
2022/12/15 05:57:54;;;;;;;72.10;33.30;;;;;;;-3.37;77.28;99116.70;126553;1292;100534;-81
2022/12/15 06:01:04;;;;;;;76.40;35.20;;;;;;;-3.44;77.53;99118.36;126598;1291;99325;-78
2022/12/15 06:04:07;;;;;;;69.10;32.40;;;;;;;-3.48;77.44;99122.38;126641;1292;99374;-78
2022/12/15 06:07:09;;;;;;;79.00;35.10;;;;;;;-3.53;77.52;99130.66;126473;1286;100490;-75
2022/12/15 06:10:12;;;;;;;68.90;32.10;;;;;;;-3.53;77.54;99130.70;126471;1284;99347;-77
2022/12/15 06:13:15;;;;;;;81.90;38.60;;;;;;;-3.45;77.74;99142.40;126471;1280;100384;-77
2022/12/15 06:16:19;;;;;;;100.10;46.70;;;;;;;-3.35;77.63;99150.48;126484;1283;100018;-78
2022/12/15 06:19:22;;;;;;;100.60;45.60;;;;;;;-3.25;77.52;99161.02;126484;1286;100519;-84
2022/12/15 06:22:27;;;;;;;89.80;40.10;;;;;;;-3.12;77.64;99175.22;126272;1286;99864;-80
2022/12/15 06:25:29;;;;;;;89.10;38.70;;;;;;;-2.98;77.36;99184.59;126476;1300;99376;-75
2022/12/15 06:28:32;;;;;;;72.60;33.90;;;;;;;-2.86;77.52;99189.96;126558;1284;99325;-79
2022/12/15 06:31:35;;;;;;;62.30;32.10;;;;;;;-2.75;77.46;99196.95;126491;1285;99371;-77
2022/12/15 06:34:38;;;;;;;69.60;33.40;;;;;;;-2.67;77.36;99195.55;126463;1288;99424;-76
2022/12/15 06:37:40;;;;;;;74.90;34.70;;;;;;;-2.64;76.94;99198.88;126409;1293;100510;-78
2022/12/15 06:40:43;;;;;;;75.30;35.70;;;;;;;-2.74;76.94;99209.77;126306;1293;100533;-77
2022/12/15 06:43:50;;;;;;;74.00;36.40;;;;;;;-2.85;77.19;99214.05;126356;1293;99372;-76
2022/12/15 06:46:52;;;;;;;81.40;38.80;;;;;;;-2.96;77.50;99218.73;126296;1285;99361;-77
2022/12/15 06:49:55;;;;;;;77.90;34.70;;;;;;;-2.97;77.55;99226.29;126326;1284;99384;-76
2022/12/15 06:52:59;;;;;;;83.10;36.60;;;;;;;-3.04;77.29;99235.42;126250;1292;100533;-73
2022/12/15 06:56:04;;;;;;;74.30;35.60;;;;;;;-3.20;77.99;99239.32;126379;1283;100537;-74
2022/12/15 06:59:07;;;;;;;86.90;38.20;;;;;;;-3.31;78.23;99241.00;126342;1284;99462;-73
2022/12/15 07:02:15;;;;;;;86.80;38.80;;;;;;;-3.37;78.48;99243.09;126179;1285;99376;-72
2022/12/15 07:05:18;;;;;;;117.30;50.50;;;;;;;-3.36;78.37;99247.41;126363;1285;100379;-74
2022/12/15 07:08:20;;;;;;;111.70;50.20;;;;;;;-3.30;78.37;99255.77;126301;1285;99833;-74
2022/12/15 07:11:24;;;;;;;192.30;74.00;;;;;;;-3.16;78.18;99263.46;126257;1293;99530;-74
2022/12/15 07:14:27;;;;;;;237.50;91.10;;;;;;;-2.98;78.08;99266.54;126264;1294;99435;-74
2022/12/15 07:17:29;;;;;;;127.80;56.10;;;;;;;-2.84;78.04;99276.15;126409;1290;99824;-73
2022/12/15 07:20:32;;;;;;;111.50;49.70;;;;;;;-2.75;77.68;99280.84;126477;1284;99864;-74
2022/12/15 07:23:36;;;;;;;131.60;57.90;;;;;;;-2.64;77.98;99287.10;126516;1295;100499;-75
2022/12/15 07:26:38;;;;;;;101.20;47.20;;;;;;;-2.53;77.56;99298.30;126427;1283;99335;-73
2022/12/15 07:29:41;;;;;;;126.10;58.30;;;;;;;-2.45;77.66;99302.73;126379;1283;100506;-76
2022/12/15 07:32:44;;;;;;;157.10;68.70;;;;;;;-2.39;77.46;99306.67;126335;1285;99403;-76
2022/12/15 07:35:53;;;;;;;133.30;59.40;;;;;;;-2.35;77.37;99312.34;126533;1284;99721;-73
2022/12/15 07:39:01;;;;;;;112.10;51.80;;;;;;;-2.30;77.78;99313.98;126460;1285;99354;-76
2022/12/15 07:42:04;;;;;;;155.30;69.80;;;;;;;-2.28;77.42;99312.10;126133;1288;99457;-75
2022/12/15 07:45:10;;;;;;;116.60;57.00;;;;;;;-2.23;77.75;99314.57;126369;1285;99863;-74
2022/12/15 07:48:12;;;;;;;99.90;47.90;;;;;;;-2.19;77.94;99317.61;126934;1285;99325;-77
2022/12/15 07:51:15;;;;;;;103.30;46.20;;;;;;;-2.13;77.83;99321.83;126539;1300;99477;-77
2022/12/15 07:54:17;;;;;;;90.20;38.60;;;;;;;-2.08;77.82;99324.61;126716;1284;99343;-76
2022/12/15 07:57:20;;;;;;;80.50;37.30;;;;;;;-2.01;77.67;99321.20;126596;1304;99333;-76
2022/12/15 08:00:23;;;;;;;83.70;37.70;;;;;;;-1.95;77.68;99335.50;126340;1292;99459;-75
2022/12/15 08:03:26;;;;;;;71.20;33.70;;;;;;;-1.88;77.38;99337.88;126296;1284;99348;-77
2022/12/15 08:06:28;;;;;;;82.80;39.80;;;;;;;-1.83;77.08;99343.45;126462;1290;99799;-76
2022/12/15 08:09:31;;;;;;;79.90;38.70;;;;;;;-1.84;76.97;99340.94;126585;1285;100386;-77
2022/12/15 08:12:35;;;;;;;93.20;41.60;;;;;;;-1.91;76.99;99346.42;126784;1283;99992;-77
2022/12/15 08:15:37;;;;;;;97.00;45.90;;;;;;;-2.03;76.90;99350.27;127627;1295;99317;-77
2022/12/15 08:18:40;;;;;;;87.30;42.00;;;;;;;-2.06;77.50;99355.14;126579;1290;99374;-78
2022/12/15 08:21:45;;;;;;;87.90;43.60;;;;;;;-2.07;77.53;99360.14;126416;1290;99642;-78
2022/12/15 08:24:48;;;;;;;103.20;54.50;;;;;;;-2.02;77.56;99365.38;126438;1290;99359;-77
2022/12/15 08:27:51;;;;;;;106.00;52.40;;;;;;;-1.96;77.66;99371.98;126470;1296;99512;-77
2022/12/15 08:30:54;;;;;;;171.60;91.60;;;;;;;-1.96;77.61;99382.60;126309;1297;100451;-77
2022/12/15 08:33:56;;;;;;;122.80;61.40;;;;;;;-1.98;77.48;99385.50;126412;1291;99929;-76
2022/12/15 08:36:59;;;;;;;195.30;104.40;;;;;;;-1.94;77.53;99391.41;126296;1290;99397;-76
2022/12/15 08:40:02;;;;;;;100.20;48.80;;;;;;;-1.98;77.36;99394.73;126342;1293;99351;-77
2022/12/15 08:43:05;;;;;;;104.90;51.90;;;;;;;-2.06;77.56;99396.43;126298;1290;99370;-76
2022/12/15 08:46:08;;;;;;;121.80;54.30;;;;;;;-2.10;77.59;99397.08;126316;1294;99373;-76
2022/12/15 08:49:10;;;;;;;138.20;62.90;;;;;;;-2.26;77.60;99403.06;126375;1305;99434;-75
2022/12/15 08:52:13;;;;;;;94.50;43.40;;;;;;;-2.32;77.94;99405.20;126327;1289;100672;-75
2022/12/15 08:55:16;;;;;;;133.10;62.90;;;;;;;-2.24;77.83;99408.70;126357;1284;99471;-73
2022/12/15 08:58:19;;;;;;;110.80;50.40;;;;;;;-2.15;77.83;99411.46;126264;1297;112346;-76
2022/12/15 09:01:23;;;;;;;123.10;60.40;;;;;;;-2.07;77.71;99413.08;126474;1290;112644;-76
2022/12/15 09:04:26;;;;;;;134.80;64.10;;;;;;;-1.94;78.08;99409.86;126468;1296;112095;-77
2022/12/15 09:07:29;;;;;;;101.00;50.80;;;;;;;-1.86;77.27;99414.06;126288;1286;99355;-77
2022/12/15 09:10:32;;;;;;;108.30;50.30;;;;;;;-1.87;77.51;99417.07;126263;1293;99388;-80
2022/12/15 09:13:35;;;;;;;107.50;55.00;;;;;;;-1.81;77.87;99425.10;126290;1293;99429;-80
2022/12/15 09:16:37;;;;;;;92.60;47.00;;;;;;;-1.72;77.59;99427.14;126379;1288;100528;-77
2022/12/15 09:19:40;;;;;;;111.40;55.10;;;;;;;-1.64;77.78;99426.09;126239;1293;99930;-79
2022/12/15 09:22:43;;;;;;;102.60;49.00;;;;;;;-1.55;77.62;99429.20;126258;1284;99489;-77
2022/12/15 09:25:46;;;;;;;97.30;46.20;;;;;;;-1.50;77.33;99427.89;126671;1293;99765;-79
2022/12/15 09:28:49;;;;;;;100.80;48.20;;;;;;;-1.56;76.97;99431.39;126874;1285;99354;-78
2022/12/15 09:31:52;;;;;;;120.20;57.60;;;;;;;-1.67;77.41;99437.30;126923;1294;100525;-78
2022/12/15 09:34:54;;;;;;;131.40;67.30;;;;;;;-1.63;77.68;99443.14;126834;1284;99323;-78
2022/12/15 09:37:57;;;;;;;184.10;85.00;;;;;;;-1.53;77.55;99446.39;126576;1287;99803;-77
2022/12/15 09:41:08;;;;;;;104.90;45.10;;;;;;;-1.46;77.47;99450.96;126345;1290;108723;-76
2022/12/15 09:44:13;;;;;;;107.10;51.20;;;;;;;-1.45;77.03;99455.66;126462;1286;107698;-78
2022/12/15 09:47:26;;;;;;;111.40;52.10;;;;;;;-1.44;77.00;99456.42;126511;1290;107305;-78
2022/12/15 09:50:34;;;;;;;124.00;61.60;;;;;;;-1.43;77.47;99459.35;126438;1290;106673;-78
2022/12/15 09:53:37;;;;;;;115.40;56.90;;;;;;;-1.36;77.17;99458.05;126510;1293;107646;-76
2022/12/15 09:56:44;;;;;;;94.80;45.90;;;;;;;-1.34;77.15;99458.42;126509;1285;99779;-79
2022/12/15 10:00:08;;;;;;;100.10;44.40;;;;;;;-1.33;77.04;99459.42;126444;1284;107685;-78
2022/12/15 10:03:28;;;;;;;99.10;50.70;;;;;;;-1.33;76.93;99462.55;126484;1293;107616;-77
2022/12/15 10:06:37;;;;;;;109.00;57.10;;;;;;;-1.38;76.93;99464.08;126562;1290;108479;-78
2022/12/15 10:09:39;;;;;;;92.80;44.40;;;;;;;-1.40;76.87;99468.05;126602;1303;107521;-77
2022/12/15 10:12:44;;;;;;;155.40;85.10;;;;;;;-1.46;77.10;99475.95;126417;1307;100536;-78
2022/12/15 10:15:55;;;;;;;106.00;54.90;;;;;;;-1.36;77.48;99484.72;126225;1298;107608;-77
2022/12/15 10:19:06;;;;;;;121.50;65.10;;;;;;;-1.26;77.24;99484.77;126591;1285;107706;-77
2022/12/15 10:22:13;;;;;;;96.30;48.10;;;;;;;-1.25;77.06;99482.27;126424;1290;108584;-76
2022/12/15 10:25:18;;;;;;;103.50;51.80;;;;;;;-1.29;76.66;99485.16;126549;1290;107440;-77
2022/12/15 10:28:52;;;;;;;96.40;47.60;;;;;;;-1.41;76.55;99490.63;126575;1283;107244;-77
2022/12/15 10:32:00;;;;;;;97.70;45.30;;;;;;;-1.58;76.32;99497.08;126461;1290;107583;-77
2022/12/15 10:35:08;;;;;;;111.30;48.90;;;;;;;-1.75;76.91;99507.05;126463;1284;107276;-75
2022/12/15 10:38:25;;;;;;;104.60;46.50;;;;;;;-1.83;76.98;99510.09;126469;1285;106765;-77
2022/12/15 10:41:32;;;;;;;102.00;45.70;;;;;;;-1.84;77.18;99512.10;126456;1284;107572;-78
2022/12/15 10:44:39;;;;;;;110.80;49.90;;;;;;;-1.83;77.39;99516.23;126478;1291;107706;-78
2022/12/15 10:47:56;;;;;;;101.00;44.70;;;;;;;-1.84;77.43;99521.35;126422;1284;107632;-76
2022/12/15 10:51:24;;;;;;;111.00;47.80;;;;;;;-1.79;77.34;99523.10;126523;1285;107550;-78
2022/12/15 10:54:43;;;;;;;95.90;44.20;;;;;;;-1.74;77.33;99518.27;126403;1290;107506;-77
2022/12/15 10:57:58;;;;;;;99.50;47.10;;;;;;;-1.68;76.91;99516.02;126630;1293;107534;-78
2022/12/15 11:01:14;;;;;;;95.70;44.10;;;;;;;-1.69;77.37;99515.19;126511;1281;107555;-76
2022/12/15 11:04:26;;;;;;;94.50;44.20;;;;;;;-1.68;76.83;99518.27;126613;1291;107668;-77
2022/12/15 11:07:35;;;;;;;95.20;44.00;;;;;;;-1.74;76.98;99517.23;126376;1283;107638;-77
2022/12/15 11:14:17;;;;;;;90.50;42.10;;;;;;;-1.76;77.17;99526.27;126371;1284;108766;-75
2022/12/15 11:17:22;;;;;;;92.90;45.00;;;;;;;-1.67;77.28;99532.52;126523;1292;107629;-73
2022/12/15 11:20:30;;;;;;;87.90;40.80;;;;;;;-1.56;77.18;99543.67;126453;1293;108611;-73
2022/12/15 11:23:59;;;;;;;266.10;96.40;;;;;;;-1.52;76.86;99545.94;126506;1277;106393;-74
2022/12/15 11:27:11;;;;;;;93.40;39.60;;;;;;;-1.51;76.60;99547.40;126508;1285;107385;-72
2022/12/15 11:30:17;;;;;;;76.90;36.20;;;;;;;-1.40;76.87;99555.10;126537;1284;107529;-72
2022/12/15 11:33:19;;;;;;;91.00;40.30;;;;;;;-1.29;76.63;99555.98;126467;1283;107632;-73
2022/12/15 11:36:43;;;;;;;91.60;41.90;;;;;;;-1.29;76.35;99555.98;126426;1284;100856;-72
2022/12/15 11:40:12;;;;;;;79.40;38.00;;;;;;;-1.46;75.79;99554.47;126300;1293;107597;-72
2022/12/15 11:43:35;;;;;;;87.40;41.00;;;;;;;-1.57;76.39;99557.36;126252;1286;107369;-71
2022/12/15 11:46:44;;;;;;;83.40;39.50;;;;;;;-1.57;76.59;99565.39;126407;1287;107541;-72
2022/12/15 11:50:03;;;;;;;90.40;43.80;;;;;;;-1.49;76.77;99565.45;126471;1277;107630;-72
2022/12/15 11:53:25;;;;;;;83.40;41.80;;;;;;;-1.41;76.76;99572.46;126273;1300;108757;-71
2022/12/15 11:56:32;;;;;;;83.30;39.80;;;;;;;-1.25;76.75;99582.80;126433;1284;107449;-71
2022/12/15 11:59:58;;;;;;;78.20;38.40;;;;;;;-1.12;76.82;99583.95;126258;1285;107497;-72
2022/12/15 12:03:18;;;;;;;76.30;35.50;;;;;;;-1.01;76.75;99590.06;126307;1285;107592;-71
2022/12/15 12:06:31;;;;;;;72.30;34.80;;;;;;;-0.97;75.97;99594.85;126325;1294;105327;-73
2022/12/15 12:09:35;;;;;;;;;;;;;;;-0.96;76.30;99604.07;126233;1285;107618;-73
2022/12/15 12:12:43;;;;;;;80.20;37.30;;;;;;;-0.93;75.87;99608.23;126300;1289;107559;-72
2022/12/15 12:15:58;;;;;;;85.50;37.90;;;;;;;-1.09;75.26;99613.90;126191;1297;107557;-70
2022/12/15 12:19:04;;;;;;;103.80;44.40;;;;;;;-1.26;75.75;99617.06;126304;1294;106657;-70
2022/12/15 12:22:15;;;;;;;79.40;34.80;;;;;;;-1.44;74.97;99614.68;126325;1301;107636;-70
2022/12/15 12:25:21;;;;;;;78.40;33.60;;;;;;;-1.50;75.81;99615.56;126234;1293;107878;-72
2022/12/15 12:28:31;;;;;;;61.60;28.90;;;;;;;-1.53;76.07;99620.61;126411;1290;107610;-73
2022/12/15 12:31:54;;;;;;;57.00;25.60;;;;;;;-1.44;75.96;99618.69;126280;1293;107589;-74
2022/12/15 12:35:02;;;;;;;61.90;27.80;;;;;;;-1.31;75.81;99617.20;126339;1284;107693;-71
2022/12/15 12:38:06;;;;;;;85.00;38.50;;;;;;;-1.25;75.74;99625.05;126319;1285;107627;-73
2022/12/15 12:41:15;;;;;;;76.00;35.60;;;;;;;-1.31;75.12;99629.39;126300;1285;107516;-72
2022/12/15 12:44:28;;;;;;;68.50;34.10;;;;;;;-1.32;75.87;99631.36;126360;1285;106484;-71
2022/12/15 12:47:36;;;;;;;64.10;30.30;;;;;;;-1.27;75.60;99633.17;126310;1284;108108;-74
2022/12/15 12:50:38;;;;;;;66.70;30.90;;;;;;;-1.18;75.93;99637.70;126235;1301;107715;-70
2022/12/15 12:53:41;;;;;;;72.80;38.30;;;;;;;-1.10;75.81;99640.55;126372;1284;99380;-73
2022/12/15 12:56:45;;;;;;;80.40;38.90;;;;;;;-1.20;75.48;99643.20;126335;1285;99393;-73
2022/12/15 12:59:56;;;;;;;84.40;39.40;;;;;;;-1.22;76.00;99644.23;126251;1284;100524;-72
2022/12/15 13:03:17;;;;;;;81.80;39.30;;;;;;;-1.18;75.81;99649.55;128059;1297;108660;-73
2022/12/15 13:06:45;;;;;;;85.70;40.20;;;;;;;-1.22;75.58;99655.71;126296;1280;107551;-71
2022/12/15 13:10:11;;;;;;;80.00;40.50;;;;;;;-1.34;75.10;99660.66;126392;1282;107594;-72
2022/12/15 13:13:46;;;;;;;82.40;38.50;;;;;;;-1.47;75.60;99664.06;122984;1328;635802;-72
2022/12/15 13:16:57;;;;;;;87.60;42.60;;;;;;;-1.70;75.45;99672.91;126041;1298;107339;-72
2022/12/15 13:20:20;;;;;;;97.40;41.80;;;;;;;-1.86;76.08;99684.13;125830;1292;107464;-72
2022/12/15 13:23:36;;;;;;;;;;;;;;;-1.94;75.98;99688.73;126086;1309;106532;-72
2022/12/15 13:26:45;;;;;;;79.60;34.20;;;;;;;-1.89;76.42;99685.46;124982;1305;1308413;-73
2022/12/15 13:29:58;;;;;;;81.20;36.30;;;;;;;-1.86;76.24;99693.14;125978;1289;107516;-72
2022/12/15 13:33:18;;;;;;;77.20;33.20;;;;;;;-1.79;76.52;99690.84;126012;1289;107553;-74
2022/12/15 13:36:58;;;;;;;79.70;37.10;;;;;;;-1.73;75.95;99698.17;126170;1290;106633;-72
2022/12/15 13:40:32;;;;;;;90.00;40.40;;;;;;;-1.62;76.35;99698.21;125940;1289;107480;-73
2022/12/15 13:43:46;;;;;;;77.00;35.60;;;;;;;-1.50;76.01;99696.65;126601;1281;107540;-71
2022/12/15 13:46:54;;;;;;;74.90;35.90;;;;;;;-1.42;76.13;99698.83;126562;1281;107511;-71
2022/12/15 13:50:07;;;;;;;74.90;36.70;;;;;;;-1.33;76.05;99692.54;126695;1281;107559;-70
2022/12/15 13:53:20;;;;;;;76.00;37.50;;;;;;;-1.30;75.89;99691.11;126593;1288;107440;-71
2022/12/15 13:56:44;;;;;;;71.00;35.80;;;;;;;-1.26;76.00;99690.55;126579;1289;107607;-70
2022/12/15 13:59:52;;;;;;;69.00;34.70;;;;;;;-1.38;75.58;99687.56;126829;1289;107515;-71
2022/12/15 14:03:07;;;;;;;74.70;37.40;;;;;;;-1.45;75.97;99686.77;126626;1288;107386;-70
2022/12/15 14:06:15;;;;;;;74.60;37.00;;;;;;;-1.45;75.97;99688.33;126607;1290;107672;-70
2022/12/15 14:09:27;;;;;;;77.20;37.20;;;;;;;-1.47;75.85;99684.30;126666;1283;107504;-71
2022/12/15 14:12:32;;;;;;;96.30;43.70;;;;;;;-1.50;76.05;99681.46;126603;1283;107515;-71
2022/12/15 14:15:43;;;;;;;91.30;40.60;;;;;;;-1.54;75.90;99683.66;126584;1288;107376;-71
2022/12/15 14:19:05;;;;;;;137.90;52.60;;;;;;;-1.55;76.00;99682.64;126560;1289;108118;-70
2022/12/15 14:22:23;;;;;;;107.30;43.00;;;;;;;-1.57;75.71;99686.11;126830;1289;106636;-73
2022/12/15 14:25:29;;;;;;;82.40;36.70;;;;;;;-1.65;75.85;99685.83;126569;1299;106256;-71
2022/12/15 14:28:36;;;;;;;90.70;38.50;;;;;;;-1.67;75.88;99679.17;126681;1298;108196;-73
2022/12/15 14:31:44;;;;;;;93.90;40.40;;;;;;;-1.70;75.66;99683.18;126635;1297;107273;-73
2022/12/15 14:34:49;;;;;;;90.80;36.70;;;;;;;-1.78;75.47;99690.27;126623;1298;106535;-71
2022/12/15 14:37:57;;;;;;;77.10;33.40;;;;;;;-1.86;75.78;99700.64;126671;1295;107399;-71
2022/12/15 14:41:06;;;;;;;68.00;30.60;;;;;;;-1.87;75.63;99707.50;126643;1275;107343;-71
2022/12/15 14:44:23;;;;;;;70.00;31.10;;;;;;;-1.86;75.55;99710.92;126738;1295;107247;-72
2022/12/15 14:47:31;;;;;;;64.70;27.50;;;;;;;-1.83;75.57;99706.95;126602;1282;107742;-71
2022/12/15 14:50:37;;;;;;;68.70;30.90;;;;;;;-1.81;75.33;99710.48;126650;1283;107484;-70
2022/12/15 14:53:48;;;;;;;72.90;30.10;;;;;;;-1.85;75.28;99715.25;126547;1289;108166;-72
2022/12/15 14:57:01;;;;;;;65.30;29.60;;;;;;;-1.95;75.01;99724.36;126416;1289;107385;-70
2022/12/15 15:00:26;;;;;;;68.80;30.30;;;;;;;-2.07;74.94;99729.21;126644;1288;108317;-70
2022/12/15 15:03:38;;;;;;;64.80;28.60;;;;;;;-2.19;74.88;99727.77;126585;1288;106327;-70
2022/12/15 15:06:42;;;;;;;;;;;;;;;-2.27;75.05;99730.80;126578;1282;107280;-72
2022/12/15 15:09:48;;;;;;;62.20;26.30;;;;;;;-2.33;74.72;99732.02;126574;1294;107528;-71
2022/12/15 15:12:54;;;;;;;67.60;28.10;;;;;;;-2.47;74.91;99734.19;126621;1295;106566;-71
2022/12/15 15:16:05;;;;;;;67.30;29.80;;;;;;;-2.56;74.78;99729.59;126576;1294;107400;-72
2022/12/15 15:19:22;;;;;;;75.40;31.60;;;;;;;-2.63;74.74;99727.57;126586;1278;107511;-71
2022/12/15 15:22:38;;;;;;;95.10;37.40;;;;;;;-2.72;74.74;99737.95;126657;1289;108767;-70
2022/12/15 15:25:50;;;;;;;78.90;32.90;;;;;;;-2.82;74.49;99750.85;126739;1284;107568;-71
2022/12/15 15:28:56;;;;;;;79.10;31.20;;;;;;;-2.91;74.40;99757.73;126573;1288;107561;-73
2022/12/15 15:32:14;;;;;;;75.70;29.90;;;;;;;-3.00;74.14;99759.80;126519;1289;107478;-72
2022/12/15 15:35:20;;;;;;;70.90;30.10;;;;;;;-3.12;74.01;99768.08;127043;1281;106640;-71
2022/12/15 15:38:29;;;;;;;70.20;28.30;;;;;;;-3.20;74.10;99776.46;126552;1294;105851;-73
2022/12/15 15:41:35;;;;;;;71.50;28.80;;;;;;;-3.27;74.05;99781.32;126605;1288;108652;-72
2022/12/15 15:44:40;;;;;;;63.40;27.60;;;;;;;-3.38;73.52;99781.88;126567;1287;107265;-73
2022/12/15 15:47:50;;;;;;;63.40;27.20;;;;;;;-3.52;73.94;99787.64;126583;1276;107497;-72
2022/12/15 15:50:56;;;;;;;66.20;27.90;;;;;;;-3.62;73.56;99789.82;126571;1283;105532;-71
2022/12/15 15:54:04;;;;;;;62.20;27.90;;;;;;;-3.66;73.69;99794.02;126612;1282;107644;-71
2022/12/15 15:57:14;;;;;;;67.40;27.70;;;;;;;-3.70;73.68;99806.73;126506;1288;107619;-71
2022/12/15 16:00:23;;;;;;;63.70;27.20;;;;;;;-3.70;73.64;99818.05;126576;1298;107356;-72
2022/12/15 16:03:29;;;;;;;60.70;26.70;;;;;;;-3.69;73.55;99829.63;126928;1286;107565;-72
2022/12/15 16:06:37;;;;;;;60.00;25.70;;;;;;;-3.67;73.65;99833.16;126977;1301;108340;-72
2022/12/15 16:09:43;;;;;;;58.80;26.40;;;;;;;-3.63;73.60;99839.59;126964;1284;107660;-73
2022/12/15 16:12:52;;;;;;;54.70;24.90;;;;;;;-3.63;73.45;99843.05;126948;1286;109209;-72
2022/12/15 16:15:57;;;;;;;62.30;26.00;;;;;;;-3.66;73.54;99844.95;126919;1286;107616;-72
2022/12/15 16:19:03;;;;;;;62.00;26.30;;;;;;;-3.69;73.11;99849.29;126957;1292;107638;-73
2022/12/15 16:22:14;;;;;;;59.10;25.80;;;;;;;-3.73;73.17;99852.05;126981;1279;107524;-73
2022/12/15 16:25:29;;;;;;;63.00;27.30;;;;;;;-3.80;73.10;99859.88;127053;1285;107521;-73
2022/12/15 16:28:35;;;;;;;66.60;27.10;;;;;;;-3.86;72.61;99862.09;126850;1279;107324;-72